logo
Search for airport 
image banner adimage banner adimage banner ad
image banner ad

HKAA - Lubarra

Located in , Kenya

ICAO - , IATA -

Data provided by Airmate  

General information

Coordinates: S1°18'0" E36°57'0"
Elevation is 5248 feet MSL.
 
View others Airports in Nairobi Province

Operational data

Special qualification required
Current time UTC:
Current local time:
Weather at : HKJK - Nairobi Jomo Kenyatta Intl ( 3 km )
METAR: HKJK 140100Z 27004KT 9999 SCT020 BKN080 18/17 Q1020
TAF: TAF HKJK 132300Z 1400/1506 VRB03KT 9999 SCT020 BKN080 TEMPO 1401/1404 -RA SCT008 BKN017 BKN080 BECMG 1407/1410 08010KT NSW FEW024CB BKN025 TEMPO 1415/1419 VRB10KT -TSRA FEW018CB SCT019 BKN080 BECMG 1417/1420 VRB03KT -RA SCT018 BKN080
View NOTAMs / SUP AIP / TFR affecting this airport [VIEW]
Communications frequencies: [VIEW]

Runways:

RWY identifierQFULength (ft)Width (ft)SurfaceLDA (ft)
1800UNK
3600UNK

Airport contact information

Address: Kenya

Satellite view of HKAA